Time,TemperatureF,DewpointF,PressureIn,WindDirection,WindDirectionDegrees,WindSpeedMPH,WindSpeedGustMPH,Humidity,HourlyPrecipIn,Conditions,Clouds,dailyrainin,SoftwareType,DateUTC
2013-04-25 00:00:00,47.0,37.0,-100.00,NNW,344,3.0,-999.0,68,0.00,,,0.30,,2013-04-25 05:00:00,
2013-04-25 00:32:00,47.0,37.0,-100.00,NNW,344,3.0,-999.0,68,0.00,,,0.30,,2013-04-25 05:32:00,
2013-04-25 00:42:00,47.0,37.0,-100.00,NNW,344,3.0,-999.0,68,0.00,,,0.30,,2013-04-25 05:42:00,
2013-04-25 00:52:00,47.0,37.0,-100.00,NNW,344,3.0,-999.0,68,0.00,,,0.30,,2013-04-25 05:52:00,
2013-04-25 01:00:00,45.0,39.0,-100.00,NNW,344,4.0,-999.0,78,0.00,,,0.30,,2013-04-25 06:00:00,
2013-04-25 01:32:00,45.0,39.0,-100.00,NNW,344,4.0,-999.0,78,0.00,,,0.30,,2013-04-25 06:32:00,
2013-04-25 01:42:00,45.0,39.0,-100.00,NNW,344,4.0,-999.0,78,0.00,,,0.30,,2013-04-25 06:42:00,
2013-04-25 01:52:00,45.0,39.0,-100.00,NNW,344,4.0,-999.0,78,0.00,,,0.30,,2013-04-25 06:52:00,
2013-04-25 02:00:00,45.0,38.0,-100.00,North,353,7.0,-999.0,77,0.00,,,0.14,,2013-04-25 07:00:00,
2013-04-25 02:32:00,45.0,38.0,-100.00,North,353,7.0,-999.0,77,0.00,,,0.14,,2013-04-25 07:32:00,
2013-04-25 02:42:00,45.0,38.0,-100.00,North,353,7.0,-999.0,77,0.00,,,0.14,,2013-04-25 07:42:00,
2013-04-25 02:52:00,45.0,38.0,-100.00,North,353,7.0,-999.0,77,0.00,,,0.14,,2013-04-25 07:52:00,
2013-04-25 03:00:00,43.0,37.0,-100.00,NNW,346,5.0,-999.0,78,0.00,,,0.01,,2013-04-25 08:00:00,
2013-04-25 03:31:00,43.0,37.0,-100.00,NNW,346,5.0,-999.0,78,0.00,,,0.01,,2013-04-25 08:31:00,
2013-04-25 03:42:00,43.0,37.0,-100.00,NNW,346,5.0,-999.0,78,0.00,,,0.01,,2013-04-25 08:42:00,
2013-04-25 03:52:00,43.0,37.0,-100.00,NNW,346,5.0,-999.0,78,0.00,,,0.01,,2013-04-25 08:52:00,
2013-04-25 04:00:00,43.0,38.0,-100.00,North,359,5.0,-999.0,84,0.00,,,0.00,,2013-04-25 09:00:00,
2013-04-25 04:33:00,43.0,38.0,-100.00,North,359,5.0,-999.0,84,0.00,,,0.00,,2013-04-25 09:33:00,
2013-04-25 04:42:00,43.0,38.0,-100.00,North,359,5.0,-999.0,84,0.00,,,0.00,,2013-04-25 09:42:00,
2013-04-25 04:52:00,43.0,38.0,-100.00,North,359,5.0,-999.0,84,0.00,,,0.00,,2013-04-25 09:52:00,
2013-04-25 05:00:00,40.0,36.0,-100.00,South,172,0.0,-999.0,86,0.00,,,0.00,,2013-04-25 10:00:00,
2013-04-25 05:32:00,40.0,36.0,-100.00,South,172,0.0,-999.0,86,0.00,,,0.00,,2013-04-25 10:32:00,
2013-04-25 05:42:00,40.0,36.0,-100.00,South,172,0.0,-999.0,86,0.00,,,0.00,,2013-04-25 10:42:00,
2013-04-25 05:53:00,40.0,36.0,-100.00,South,172,0.0,-999.0,86,0.00,,,0.00,,2013-04-25 10:53:00,
2013-04-25 06:00:00,40.0,38.0,-100.00,NNW,341,2.0,-999.0,91,0.00,,,0.00,,2013-04-25 11:00:00,
2013-04-25 06:32:00,40.0,38.0,-100.00,NNW,341,2.0,-999.0,91,0.00,,,0.00,,2013-04-25 11:32:00,
2013-04-25 06:42:00,40.0,38.0,-100.00,NNW,341,2.0,-999.0,91,0.00,,,0.00,,2013-04-25 11:42:00,
2013-04-25 06:52:00,40.0,38.0,-100.00,NNW,341,2.0,-999.0,91,0.00,,,0.00,,2013-04-25 11:52:00,
2013-04-25 07:00:00,39.0,38.0,-100.00,NNW,343,4.0,-999.0,93,0.00,,,0.00,,2013-04-25 12:00:00,
2013-04-25 07:32:00,39.0,38.0,-100.00,NNW,343,4.0,-999.0,93,0.00,,,0.00,,2013-04-25 12:32:00,
2013-04-25 07:42:00,39.0,38.0,-100.00,NNW,343,4.0,-999.0,93,0.00,,,0.00,,2013-04-25 12:42:00,
2013-04-25 07:52:00,39.0,38.0,-100.00,NNW,343,4.0,-999.0,93,0.00,,,0.00,,2013-04-25 12:52:00,
2013-04-25 08:00:00,41.0,40.0,-100.00,NNE,20,2.0,-999.0,94,0.00,,,0.00,,2013-04-25 13:00:00,
2013-04-25 08:32:00,41.0,40.0,-100.00,NNE,20,2.0,-999.0,94,0.00,,,0.00,,2013-04-25 13:32:00,
2013-04-25 08:42:00,41.0,40.0,-100.00,NNE,20,2.0,-999.0,94,0.00,,,0.00,,2013-04-25 13:42:00,
2013-04-25 08:53:00,41.0,40.0,-100.00,NNE,20,2.0,-999.0,94,0.00,,,0.00,,2013-04-25 13:53:00,
2013-04-25 09:00:00,48.0,41.0,-100.00,NNE,30,0.0,-999.0,76,0.00,,,0.00,,2013-04-25 14:00:00,
2013-04-25 09:32:00,48.0,41.0,-100.00,NNE,30,0.0,-999.0,76,0.00,,,0.00,,2013-04-25 14:32:00,
2013-04-25 09:42:00,48.0,41.0,-100.00,NNE,30,0.0,-999.0,76,0.00,,,0.00,,2013-04-25 14:42:00,
2013-04-25 09:52:00,48.0,41.0,-100.00,NNE,30,0.0,-999.0,76,0.00,,,0.00,,2013-04-25 14:52:00,
2013-04-25 11:00:00,59.0,40.0,-100.00,South,180,8.0,-999.0,50,0.00,,,0.00,,2013-04-25 16:00:00,
2013-04-25 11:32:00,59.0,40.0,-100.00,South,180,8.0,-999.0,50,0.00,,,0.00,,2013-04-25 16:32:00,
2013-04-25 11:43:00,59.0,40.0,-100.00,South,180,8.0,-999.0,50,0.00,,,0.00,,2013-04-25 16:43:00,
2013-04-25 11:52:00,59.0,40.0,-100.00,South,180,8.0,-999.0,50,0.00,,,0.00,,2013-04-25 16:52:00,
2013-04-25 12:00:00,63.0,42.0,-100.00,South,184,5.0,-999.0,47,0.00,,,0.00,,2013-04-25 17:00:00,
2013-04-25 12:32:00,63.0,42.0,-100.00,South,184,5.0,-999.0,47,0.00,,,0.00,,2013-04-25 17:32:00,
2013-04-25 12:42:00,63.0,42.0,-100.00,South,184,5.0,-999.0,47,0.00,,,0.00,,2013-04-25 17:42:00,
2013-04-25 12:53:00,63.0,42.0,-100.00,South,184,5.0,-999.0,47,0.00,,,0.00,,2013-04-25 17:53:00,
2013-04-25 13:00:00,65.0,43.0,-100.00,SSE,164,7.0,-999.0,45,0.00,,,0.00,,2013-04-25 18:00:00,
2013-04-25 13:32:00,65.0,43.0,-100.00,SSE,164,7.0,-999.0,45,0.00,,,0.00,,2013-04-25 18:32:00,
2013-04-25 13:43:00,65.0,43.0,-100.00,SSE,164,7.0,-999.0,45,0.00,,,0.00,,2013-04-25 18:43:00,
2013-04-25 13:53:00,65.0,43.0,-100.00,SSE,164,7.0,-999.0,45,0.00,,,0.00,,2013-04-25 18:53:00,
2013-04-25 14:00:00,68.0,41.0,-100.00,SSE,162,8.0,-999.0,38,0.00,,,0.00,,2013-04-25 19:00:00,
2013-04-25 14:31:00,68.0,41.0,-100.00,SSE,162,8.0,-999.0,38,0.00,,,0.00,,2013-04-25 19:31:00,
2013-04-25 14:42:00,68.0,41.0,-100.00,SSE,162,8.0,-999.0,38,0.00,,,0.00,,2013-04-25 19:42:00,
2013-04-25 14:52:00,68.0,41.0,-100.00,SSE,162,8.0,-999.0,38,0.00,,,0.00,,2013-04-25 19:52:00,
2013-04-25 15:00:00,68.0,38.0,-100.00,SSE,167,8.0,-999.0,33,0.00,,,0.00,,2013-04-25 20:00:00,
2013-04-25 15:32:00,68.0,38.0,-100.00,SSE,167,8.0,-999.0,33,0.00,,,0.00,,2013-04-25 20:32:00,
2013-04-25 15:43:00,68.0,38.0,-100.00,SSE,167,8.0,-999.0,33,0.00,,,0.00,,2013-04-25 20:43:00,
2013-04-25 15:52:00,68.0,38.0,-100.00,SSE,167,8.0,-999.0,33,0.00,,,0.00,,2013-04-25 20:52:00,
2013-04-25 16:00:00,70.0,35.0,-100.00,SE,127,7.0,-999.0,28,0.00,,,0.00,,2013-04-25 21:00:00,
2013-04-25 16:33:00,70.0,35.0,-100.00,SE,127,7.0,-999.0,28,0.00,,,0.00,,2013-04-25 21:33:00,
2013-04-25 16:42:00,70.0,35.0,-100.00,SE,127,7.0,-999.0,28,0.00,,,0.00,,2013-04-25 21:42:00,
2013-04-25 16:53:00,70.0,35.0,-100.00,SE,127,7.0,-999.0,28,0.00,,,0.00,,2013-04-25 21:53:00,
2013-04-25 17:00:00,70.0,35.0,-100.00,SE,142,6.0,-999.0,28,0.00,,,0.00,,2013-04-25 22:00:00,
2013-04-25 17:33:00,70.0,35.0,-100.00,SE,142,6.0,-999.0,28,0.00,,,0.00,,2013-04-25 22:33:00,
2013-04-25 17:42:00,70.0,35.0,-100.00,SE,142,6.0,-999.0,28,0.00,,,0.00,,2013-04-25 22:42:00,
2013-04-25 17:53:00,70.0,35.0,-100.00,SE,142,6.0,-999.0,28,0.00,,,0.00,,2013-04-25 22:53:00,
2013-04-25 18:00:00,70.0,36.0,-100.00,SE,146,8.0,-999.0,29,0.00,,,0.00,,2013-04-25 23:00:00,
2013-04-25 18:32:00,70.0,36.0,-100.00,SE,146,8.0,-999.0,29,0.00,,,0.00,,2013-04-25 23:32:00,
2013-04-25 18:42:00,70.0,36.0,-100.00,SE,146,8.0,-999.0,29,0.00,,,0.00,,2013-04-25 23:42:00,
2013-04-25 18:52:00,70.0,36.0,-100.00,SE,146,8.0,-999.0,29,0.00,,,0.00,,2013-04-25 23:52:00,
2013-04-25 19:00:00,69.0,35.0,-100.00,SE,136,8.0,-999.0,29,0.00,,,0.00,,2013-04-26 00:00:00,
2013-04-25 19:32:00,69.0,35.0,-100.00,SE,136,8.0,-999.0,29,0.00,,,0.00,,2013-04-26 00:32:00,
2013-04-25 19:42:00,69.0,35.0,-100.00,SE,136,8.0,-999.0,29,0.00,,,0.00,,2013-04-26 00:42:00,
2013-04-25 19:52:00,69.0,35.0,-100.00,SE,136,8.0,-999.0,29,0.00,,,0.00,,2013-04-26 00:52:00,
2013-04-25 20:00:00,64.0,36.0,-100.00,SSE,148,3.0,-999.0,35,0.00,,,0.00,,2013-04-26 01:00:00,
2013-04-25 20:31:00,64.0,36.0,-100.00,SSE,148,3.0,-999.0,35,0.00,,,0.00,,2013-04-26 01:31:00,
2013-04-25 20:42:00,64.0,36.0,-100.00,SSE,148,3.0,-999.0,35,0.00,,,0.00,,2013-04-26 01:42:00,
2013-04-25 20:52:00,64.0,36.0,-100.00,SSE,148,3.0,-999.0,35,0.00,,,0.00,,2013-04-26 01:52:00,
2013-04-25 21:00:00,61.0,38.0,-100.00,ESE,120,2.0,-999.0,42,0.00,,,0.00,,2013-04-26 02:00:00,
2013-04-25 21:32:00,61.0,38.0,-100.00,ESE,120,2.0,-999.0,42,0.00,,,0.00,,2013-04-26 02:32:00,
2013-04-25 21:42:00,61.0,38.0,-100.00,ESE,120,2.0,-999.0,42,0.00,,,0.00,,2013-04-26 02:42:00,
2013-04-25 21:52:00,61.0,38.0,-100.00,ESE,120,2.0,-999.0,42,0.00,,,0.00,,2013-04-26 02:52:00,
2013-04-25 22:00:00,59.0,39.0,-100.00,ESE,110,1.0,-999.0,49,0.00,,,0.00,,2013-04-26 03:00:00,
2013-04-25 22:33:00,59.0,39.0,-100.00,ESE,110,1.0,-999.0,49,0.00,,,0.00,,2013-04-26 03:33:00,
2013-04-25 22:43:00,59.0,39.0,-100.00,ESE,110,1.0,-999.0,49,0.00,,,0.00,,2013-04-26 03:43:00,
2013-04-25 22:53:00,59.0,39.0,-100.00,ESE,110,1.0,-999.0,49,0.00,,,0.00,,2013-04-26 03:53:00,
2013-04-25 23:00:00,53.0,42.0,-100.00,SE,143,3.0,-999.0,66,0.00,,,0.00,,2013-04-26 04:00:00,
2013-04-25 23:32:00,53.0,42.0,-100.00,SE,143,3.0,-999.0,66,0.00,,,0.00,,2013-04-26 04:32:00,
2013-04-25 23:43:00,53.0,42.0,-100.00,SE,143,3.0,-999.0,66,0.00,,,0.00,,2013-04-26 04:43:00,
2013-04-25 23:53:00,53.0,42.0,-100.00,SE,143,3.0,-999.0,66,0.00,,,0.00,,2013-04-26 04:53:00,